Terminal Aerodrome Forecast
Issued by NWS Quad Cities IA IL

Home | Current Version | Previous Version | Text Only | Print | Product List | Glossary On
Versions: 1 2 3 4 5 6 7 8 9 10 11 12 13 14 15 16 17 18 19 20 21 22 23 24 25 26 27 28 29 30 31
000
FTUS43 KDVN 050520
TAFDBQ
TAF
KDBQ 050520Z 0506/0606 11009KT P6SM -RA VCTS FEW025CB OVC040
      TEMPO 0506/0510 1SM +TSRA BR BKN008CB OVC020
     FM051100 10010KT 4SM -RA BR VCTS OVC015CB
      TEMPO 0511/0515 2SM TSRA BKN007CB OVC015
     FM051500 12012KT 5SM BR VCSH SCT015 OVC025
     FM060000 12006KT P6SM SCT250=

USA.gov is the U.S. government's official web portal to all federal, state and local government web resources and services.